Terminal Aerodrome Forecast
Issued by NWS Charleston, WV

Current Version | Previous Version | Text Only | Print | Product List | Glossary Off
Versions: 1 2 3 4 5 6 7 8 9 10 11 12 13 14 15 16 17 18 19 20 21 22 23 24 25 26

000
FTUS41 KRLX 190200 AAA
TAFCRW
TAF AMD
KCRW 190241Z 1903/1924 VRB03KT P6SM SCT050
     FM190500 00000KT 6SM BR SCT045
     FM190800 00000KT 2SM BR SCT001 SCT040
      TEMPO 1908/1912 1/2SM FG BKN001
     FM191300 00000KT 4SM BR BKN020
     FM191400 12004KT P6SM SCT025
     FM191700 12004KT P6SM SCT035=

USA.gov is the U.S. government's official web portal to all federal, state and local government web resources and services.